sensor_id;sensor_type;location;lat;lon;timestamp;temperature;humidity
15048;DHT22;7621;52.350;13.308;2022-11-14T04:55:32;7.70;99.90
15048;DHT22;7621;52.350;13.308;2022-11-14T04:57:58;7.70;99.90
15048;DHT22;7621;52.350;13.308;2022-11-14T05:00:24;7.70;99.90
15048;DHT22;7621;52.350;13.308;2022-11-14T05:02:50;7.70;99.90
15048;DHT22;7621;52.350;13.308;2022-11-14T05:05:15;7.70;99.90
15048;DHT22;7621;52.350;13.308;2022-11-14T05:07:41;7.70;99.90
15048;DHT22;7621;52.350;13.308;2022-11-14T05:10:07;7.70;99.90
15048;DHT22;7621;52.350;13.308;2022-11-14T05:12:33;7.70;99.90
15048;DHT22;7621;52.350;13.308;2022-11-14T05:14:59;7.70;99.90
15048;DHT22;7621;52.350;13.308;2022-11-14T05:17:25;7.60;99.90
15048;DHT22;7621;52.350;13.308;2022-11-14T05:19:50;7.60;99.90
15048;DHT22;7621;52.350;13.308;2022-11-14T05:22:16;7.60;99.90
15048;DHT22;7621;52.350;13.308;2022-11-14T05:24:43;7.60;99.90
15048;DHT22;7621;52.350;13.308;2022-11-14T05:27:08;7.60;99.90
15048;DHT22;7621;52.350;13.308;2022-11-14T05:29:34;7.60;99.90
15048;DHT22;7621;52.350;13.308;2022-11-14T05:31:59;7.60;99.90
15048;DHT22;7621;52.350;13.308;2022-11-14T05:34:26;7.50;99.90
15048;DHT22;7621;52.350;13.308;2022-11-14T05:36:51;7.50;99.90
15048;DHT22;7621;52.350;13.308;2022-11-14T05:39:17;7.50;99.90
15048;DHT22;7621;52.350;13.308;2022-11-14T05:41:43;7.50;99.90
15048;DHT22;7621;52.350;13.308;2022-11-14T05:44:08;7.50;99.90
15048;DHT22;7621;52.350;13.308;2022-11-14T05:46:34;7.40;99.90
15048;DHT22;7621;52.350;13.308;2022-11-14T05:48:59;7.40;99.90
15048;DHT22;7621;52.350;13.308;2022-11-14T05:51:25;7.40;99.90
15048;DHT22;7621;52.350;13.308;2022-11-14T05:53:50;7.40;99.90
15048;DHT22;7621;52.350;13.308;2022-11-14T05:56:16;7.50;99.90
15048;DHT22;7621;52.350;13.308;2022-11-14T05:58:41;7.50;99.90
15048;DHT22;7621;52.350;13.308;2022-11-14T06:01:10;7.50;99.90
15048;DHT22;7621;52.350;13.308;2022-11-14T06:03:39;7.50;99.90
15048;DHT22;7621;52.350;13.308;2022-11-14T06:06:06;7.50;99.90
15048;DHT22;7621;52.350;13.308;2022-11-14T06:08:33;7.50;99.90
15048;DHT22;7621;52.350;13.308;2022-11-14T06:11:03;7.40;99.90
15048;DHT22;7621;52.350;13.308;2022-11-14T06:13:30;7.40;99.90
15048;DHT22;7621;52.350;13.308;2022-11-14T06:16:00;7.40;99.90
15048;DHT22;7621;52.350;13.308;2022-11-14T06:18:26;7.50;99.90
15048;DHT22;7621;52.350;13.308;2022-11-14T06:20:52;7.50;99.90
15048;DHT22;7621;52.350;13.308;2022-11-14T06:23:17;7.50;99.90
15048;DHT22;7621;52.350;13.308;2022-11-14T06:25:43;7.40;99.90
15048;DHT22;7621;52.350;13.308;2022-11-14T06:28:08;7.40;99.90
15048;DHT22;7621;52.350;13.308;2022-11-14T06:30:34;7.40;99.90
15048;DHT22;7621;52.350;13.308;2022-11-14T06:32:59;7.30;99.90
15048;DHT22;7621;52.350;13.308;2022-11-14T06:35:26;7.30;99.90
15048;DHT22;7621;52.350;13.308;2022-11-14T06:37:51;7.20;99.90
15048;DHT22;7621;52.350;13.308;2022-11-14T06:40:17;7.20;99.90
15048;DHT22;7621;52.350;13.308;2022-11-14T06:42:42;7.20;99.90
15048;DHT22;7621;52.350;13.308;2022-11-14T06:45:08;7.20;99.90
15048;DHT22;7621;52.350;13.308;2022-11-14T06:47:34;7.20;99.90
15048;DHT22;7621;52.350;13.308;2022-11-14T06:49:59;7.20;99.90
15048;DHT22;7621;52.350;13.308;2022-11-14T06:52:25;7.20;99.90
15048;DHT22;7621;52.350;13.308;2022-11-14T06:54:51;7.20;99.90
15048;DHT22;7621;52.350;13.308;2022-11-14T06:57:17;7.20;99.90
15048;DHT22;7621;52.350;13.308;2022-11-14T06:59:42;7.20;99.90
15048;DHT22;7621;52.350;13.308;2022-11-14T07:02:12;7.20;99.90
15048;DHT22;7621;52.350;13.308;2022-11-14T07:04:37;7.10;99.90
15048;DHT22;7621;52.350;13.308;2022-11-14T07:07:03;7.10;99.90
15048;DHT22;7621;52.350;13.308;2022-11-14T07:09:31;7.20;99.90
15048;DHT22;7621;52.350;13.308;2022-11-14T07:11:57;7.20;99.90
15048;DHT22;7621;52.350;13.308;2022-11-14T07:14:22;7.20;99.90
15048;DHT22;7621;52.350;13.308;2022-11-14T07:16:48;7.20;99.90
15048;DHT22;7621;52.350;13.308;2022-11-14T07:19:14;7.20;99.90
15048;DHT22;7621;52.350;13.308;2022-11-14T07:21:39;7.30;99.90
15048;DHT22;7621;52.350;13.308;2022-11-14T07:24:05;7.30;99.90
15048;DHT22;7621;52.350;13.308;2022-11-14T07:26:31;7.40;99.90
15048;DHT22;7621;52.350;13.308;2022-11-14T07:28:56;7.40;99.90
15048;DHT22;7621;52.350;13.308;2022-11-14T07:31:22;7.50;99.90
15048;DHT22;7621;52.350;13.308;2022-11-14T07:33:48;7.70;99.90
15048;DHT22;7621;52.350;13.308;2022-11-14T07:36:15;7.80;99.90
15048;DHT22;7621;52.350;13.308;2022-11-14T07:38:41;7.80;99.90
15048;DHT22;7621;52.350;13.308;2022-11-14T07:41:12;7.90;99.90
15048;DHT22;7621;52.350;13.308;2022-11-14T07:43:38;7.90;99.90
15048;DHT22;7621;52.350;13.308;2022-11-14T07:46:07;8.00;99.90
15048;DHT22;7621;52.350;13.308;2022-11-14T07:48:33;8.10;99.90
15048;DHT22;7621;52.350;13.308;2022-11-14T16:53:19;8.70;99.90
15048;DHT22;7621;52.350;13.308;2022-11-14T16:55:44;8.70;99.90
15048;DHT22;7621;52.350;13.308;2022-11-14T16:58:10;8.70;99.90
15048;DHT22;7621;52.350;13.308;2022-11-14T17:00:35;8.70;99.90
15048;DHT22;7621;52.350;13.308;2022-11-14T17:03:01;8.70;99.90
15048;DHT22;7621;52.350;13.308;2022-11-14T17:05:26;8.70;99.90
15048;DHT22;7621;52.350;13.308;2022-11-14T17:07:52;8.70;99.90
15048;DHT22;7621;52.350;13.308;2022-11-14T17:10:17;8.70;99.90
15048;DHT22;7621;52.350;13.308;2022-11-14T17:12:43;8.60;99.90
15048;DHT22;7621;52.350;13.308;2022-11-14T17:15:09;8.60;99.90
15048;DHT22;7621;52.350;13.308;2022-11-14T17:17:34;8.60;99.90
15048;DHT22;7621;52.350;13.308;2022-11-14T17:20:00;8.50;99.90
15048;DHT22;7621;52.350;13.308;2022-11-14T17:22:25;8.40;99.90
15048;DHT22;7621;52.350;13.308;2022-11-14T17:24:51;8.40;99.90
15048;DHT22;7621;52.350;13.308;2022-11-14T17:27:16;8.30;99.90
15048;DHT22;7621;52.350;13.308;2022-11-14T17:29:42;8.30;99.90
15048;DHT22;7621;52.350;13.308;2022-11-14T17:32:07;8.30;99.90
15048;DHT22;7621;52.350;13.308;2022-11-14T17:34:33;8.20;99.90
15048;DHT22;7621;52.350;13.308;2022-11-14T17:36:58;8.20;99.90
15048;DHT22;7621;52.350;13.308;2022-11-14T17:39:24;8.20;99.90
15048;DHT22;7621;52.350;13.308;2022-11-14T17:41:50;8.10;99.90
15048;DHT22;7621;52.350;13.308;2022-11-14T17:44:16;8.10;99.90
15048;DHT22;7621;52.350;13.308;2022-11-14T17:46:41;8.10;99.90
15048;DHT22;7621;52.350;13.308;2022-11-14T17:49:07;8.10;99.90
15048;DHT22;7621;52.350;13.308;2022-11-14T17:51:32;8.10;99.90
15048;DHT22;7621;52.350;13.308;2022-11-14T17:53:58;8.10;99.90
15048;DHT22;7621;52.350;13.308;2022-11-14T17:56:24;8.10;99.90
15048;DHT22;7621;52.350;13.308;2022-11-14T17:58:52;8.10;99.90
15048;DHT22;7621;52.350;13.308;2022-11-14T18:01:23;8.10;99.90
15048;DHT22;7621;52.350;13.308;2022-11-14T18:03:48;8.10;99.90
15048;DHT22;7621;52.350;13.308;2022-11-14T18:06:19;8.10;99.90
15048;DHT22;7621;52.350;13.308;2022-11-14T18:08:45;8.10;99.90
15048;DHT22;7621;52.350;13.308;2022-11-14T18:11:12;8.10;99.90
15048;DHT22;7621;52.350;13.308;2022-11-14T18:13:39;8.10;99.90
15048;DHT22;7621;52.350;13.308;2022-11-14T18:16:16;8.10;99.90
15048;DHT22;7621;52.350;13.308;2022-11-14T18:18:42;8.00;99.90
15048;DHT22;7621;52.350;13.308;2022-11-14T18:21:09;8.00;99.90
15048;DHT22;7621;52.350;13.308;2022-11-14T18:23:37;7.90;99.90
15048;DHT22;7621;52.350;13.308;2022-11-14T18:26:14;7.90;99.90
15048;DHT22;7621;52.350;13.308;2022-11-14T18:28:41;7.90;99.90
15048;DHT22;7621;52.350;13.308;2022-11-14T18:31:08;7.90;99.90
15048;DHT22;7621;52.350;13.308;2022-11-14T18:33:38;7.90;99.90
15048;DHT22;7621;52.350;13.308;2022-11-14T18:36:08;7.90;99.90
15048;DHT22;7621;52.350;13.308;2022-11-14T18:38:34;8.00;99.90
15048;DHT22;7621;52.350;13.308;2022-11-14T18:41:02;8.00;99.90
15048;DHT22;7621;52.350;13.308;2022-11-14T18:43:28;8.00;99.90
15048;DHT22;7621;52.350;13.308;2022-11-14T18:46:23;7.90;99.90
15048;DHT22;7621;52.350;13.308;2022-11-14T18:48:54;7.90;99.90
15048;DHT22;7621;52.350;13.308;2022-11-14T18:51:24;7.80;99.90
15048;DHT22;7621;52.350;13.308;2022-11-14T18:53:50;7.90;99.90
15048;DHT22;7621;52.350;13.308;2022-11-14T18:56:18;7.70;99.90
15048;DHT22;7621;52.350;13.308;2022-11-14T18:58:44;7.70;99.90
15048;DHT22;7621;52.350;13.308;2022-11-14T19:01:14;7.70;99.90
15048;DHT22;7621;52.350;13.308;2022-11-14T19:03:40;7.70;99.90
15048;DHT22;7621;52.350;13.308;2022-11-14T19:06:08;7.70;99.90
15048;DHT22;7621;52.350;13.308;2022-11-14T19:08:34;7.60;99.90
15048;DHT22;7621;52.350;13.308;2022-11-14T19:11:03;7.60;99.90
15048;DHT22;7621;52.350;13.308;2022-11-14T19:13:29;7.70;99.90
15048;DHT22;7621;52.350;13.308;2022-11-14T19:16:05;7.50;99.90
15048;DHT22;7621;52.350;13.308;2022-11-14T19:18:31;7.50;99.90
15048;DHT22;7621;52.350;13.308;2022-11-14T19:20:58;7.50;99.90
15048;DHT22;7621;52.350;13.308;2022-11-14T19:23:26;7.50;99.90
15048;DHT22;7621;52.350;13.308;2022-11-14T19:25:57;7.50;99.90
15048;DHT22;7621;52.350;13.308;2022-11-14T19:28:24;7.40;99.90
15048;DHT22;7621;52.350;13.308;2022-11-14T19:30:49;7.30;99.90
15048;DHT22;7621;52.350;13.308;2022-11-14T19:33:15;7.30;99.90
15048;DHT22;7621;52.350;13.308;2022-11-14T19:35:40;7.30;99.90
15048;DHT22;7621;52.350;13.308;2022-11-14T19:38:06;7.20;99.90
15048;DHT22;7621;52.350;13.308;2022-11-14T19:40:31;7.10;99.90
15048;DHT22;7621;52.350;13.308;2022-11-14T19:42:57;7.10;99.90
15048;DHT22;7621;52.350;13.308;2022-11-14T19:45:26;7.10;99.90
15048;DHT22;7621;52.350;13.308;2022-11-14T19:47:51;7.00;99.90
15048;DHT22;7621;52.350;13.308;2022-11-14T19:50:17;7.00;99.90
15048;DHT22;7621;52.350;13.308;2022-11-14T19:52:42;7.10;99.90
15048;DHT22;7621;52.350;13.308;2022-11-14T19:55:08;7.00;99.90
15048;DHT22;7621;52.350;13.308;2022-11-14T19:57:34;7.00;99.90
15048;DHT22;7621;52.350;13.308;2022-11-14T19:59:59;7.00;99.90
15048;DHT22;7621;52.350;13.308;2022-11-14T20:02:25;7.00;99.90
15048;DHT22;7621;52.350;13.308;2022-11-14T20:04:52;6.90;99.90
15048;DHT22;7621;52.350;13.308;2022-11-14T20:07:18;6.90;99.90
15048;DHT22;7621;52.350;13.308;2022-11-14T20:09:43;6.90;99.90
15048;DHT22;7621;52.350;13.308;2022-11-14T20:12:09;6.90;99.90
15048;DHT22;7621;52.350;13.308;2022-11-14T20:14:34;6.90;99.90
15048;DHT22;7621;52.350;13.308;2022-11-14T20:17:00;6.80;99.90
15048;DHT22;7621;52.350;13.308;2022-11-14T20:19:25;6.80;99.90
15048;DHT22;7621;52.350;13.308;2022-11-14T20:21:51;6.80;99.90
15048;DHT22;7621;52.350;13.308;2022-11-14T20:24:17;6.70;99.90
15048;DHT22;7621;52.350;13.308;2022-11-14T20:26:47;6.70;99.90
15048;DHT22;7621;52.350;13.308;2022-11-14T20:29:13;6.70;99.90
15048;DHT22;7621;52.350;13.308;2022-11-14T20:31:38;6.70;99.90
15048;DHT22;7621;52.350;13.308;2022-11-14T20:34:04;6.70;99.90
15048;DHT22;7621;52.350;13.308;2022-11-14T20:36:29;6.70;99.90
15048;DHT22;7621;52.350;13.308;2022-11-14T20:38:57;6.70;99.90
15048;DHT22;7621;52.350;13.308;2022-11-14T20:41:22;6.70;99.90
15048;DHT22;7621;52.350;13.308;2022-11-14T20:43:48;6.60;99.90
15048;DHT22;7621;52.350;13.308;2022-11-14T20:46:18;6.60;99.90
15048;DHT22;7621;52.350;13.308;2022-11-14T20:48:45;6.60;99.90
15048;DHT22;7621;52.350;13.308;2022-11-14T20:51:11;6.50;99.90
15048;DHT22;7621;52.350;13.308;2022-11-14T20:53:38;6.50;99.90
15048;DHT22;7621;52.350;13.308;2022-11-14T20:56:04;6.40;99.90
15048;DHT22;7621;52.350;13.308;2022-11-14T20:58:30;6.40;99.90
15048;DHT22;7621;52.350;13.308;2022-11-14T21:00:56;6.40;99.90
15048;DHT22;7621;52.350;13.308;2022-11-14T21:03:22;6.30;99.90
15048;DHT22;7621;52.350;13.308;2022-11-14T21:05:47;6.30;99.90
15048;DHT22;7621;52.350;13.308;2022-11-14T21:08:14;6.30;99.90
15048;DHT22;7621;52.350;13.308;2022-11-14T21:10:42;6.20;99.90
15048;DHT22;7621;52.350;13.308;2022-11-14T21:13:20;6.20;99.90
15048;DHT22;7621;52.350;13.308;2022-11-14T21:16:06;6.20;99.90
15048;DHT22;7621;52.350;13.308;2022-11-14T21:18:32;6.20;99.90
15048;DHT22;7621;52.350;13.308;2022-11-14T21:21:13;6.10;99.90
15048;DHT22;7621;52.350;13.308;2022-11-14T21:23:41;6.10;99.90
15048;DHT22;7621;52.350;13.308;2022-11-14T21:28:36;6.10;99.90
15048;DHT22;7621;52.350;13.308;2022-11-14T21:31:21;6.10;99.90
15048;DHT22;7621;52.350;13.308;2022-11-14T21:33:48;6.10;99.90
15048;DHT22;7621;52.350;13.308;2022-11-14T21:36:16;6.10;99.90
15048;DHT22;7621;52.350;13.308;2022-11-14T21:38:42;6.00;99.90
15048;DHT22;7621;52.350;13.308;2022-11-14T21:41:10;6.00;99.90
15048;DHT22;7621;52.350;13.308;2022-11-14T21:43:36;6.00;99.90
15048;DHT22;7621;52.350;13.308;2022-11-14T21:46:06;5.90;99.90
15048;DHT22;7621;52.350;13.308;2022-11-14T21:48:34;5.90;99.90
15048;DHT22;7621;52.350;13.308;2022-11-14T21:51:13;5.90;99.90
15048;DHT22;7621;52.350;13.308;2022-11-14T21:53:40;5.90;99.90
15048;DHT22;7621;52.350;13.308;2022-11-14T21:56:20;5.90;99.90
